Thursday, January 18, 2018, 12:14 AM GMT
Back to Local

CYQM, Moncton, N. B.

Location: , , Canada Lat: 46.117
Local Time: 12:14 AM GMT ( 0:14 GMT) Lon: -64.683
Time Zone: GMT Elev: 232 ft

Show me the last for .
Show Decoded

2018-01-18 00:00 METAR CYQM 180000Z 02006KT 3/4SM R06/P6000FT/D R29/P6000FT/D -SN BR BKN005
                 OVC012 M04/M05 A3011 RMK SF6SC2 /S05/ SLP203 =
2018-01-17 23:00 METAR CYQM 172300Z 07003KT 3/4SM R06/P6000FT/U R29/P6000FT/U -SN BR BKN005
                 OVC021 M04/M05 A3015 RMK SF6SC2 PRESFR SLP215 =
2018-01-17 22:00 METAR CYQM 172200Z 09004KT 3/4SM R06/P6000FT/U R29/P6000FT/U -SN BR BKN005
                 OVC022 M04/M05 A3017 RMK SF6SC2 SLP224 =
2018-01-17 21:00 METAR CYQM 172100Z 12006KT 3/4SM R06/P6000FT/U R29/P6000FT/U -SN BR BKN005
                 OVC028 M04/M05 A3020 RMK SF6SC2 /SO2/ SLP235 =
2018-01-17 20:00 METAR CYQM 172000Z 11004KT 3/4SM R06/P6000FT/D R29/P6000FT/D -SN BR BKN005
                 OVC023 M04/M05 A3024 RMK SF6SC2 SLP246 =
2018-01-17 19:28 METAR CYQM 171928Z 11006KT 3/4SM R06/P6000FT/N R29/P6000FT/D -SN BR BKN008
                 OVC027 M04/M05 A3025 RMK SF6SC2 SLP249 =
2018-01-17 19:00 METAR CYQM 171900Z 13008KT 1 1/4SM -SN BR BKN007 OVC030 M04/M05 A3026 RMK SF6SC2
                 SLP252 =
2018-01-17 18:20 METAR CYQM 171820Z 12007KT 1 1/2SM -SN BKN008 OVC090 M04/M06 A3026 RMK SF6AS2
                 SLP255 =
2018-01-17 18:00 METAR CYQM 171800Z 12009KT 1SM R06/P6000FT/N R29/P6000FT/N -SN BKN008 OVC090
                 M04/M06 A3028 RMK SF7AS1 SLP259 =
2018-01-17 17:36 METAR CYQM 171736Z 12008KT 1 1/2SM SN BKN008 OVC090 M04/M06 A3029 RMK SF6AS2 VIS
                 VRB 1-2 SLP265 =
2018-01-17 17:28 METAR CYQM 171728Z 13008KT 1 3/4SM -SN SCT008 OVC090 M04/M06 A3030 RMK ST4AS4
                 SLP267 =
2018-01-17 17:21 METAR CYQM 171721Z 12005KT 1 1/4SM -SN SCT008 OVC090 M04/M06 A3030 RMK SF3AS5
                 SLP268 =
2018-01-17 17:00 METAR CYQM 171700Z 12007KT 1 1/2SM -SN SCT008 OVC090 M04/M06 A3032 RMK SF3AS5
                 SLP273 =
2018-01-17 16:46 METAR CYQM 171646Z 14004KT 2SM -SN BKN008 OVC090 M04/M06 A3032 RMK SF5AS3 PRESFR
                 SLP275 =
2018-01-17 16:00 METAR CYQM 171600Z 15004KT 3SM -SN BKN007 BKN040 OVC080 M04/M06 A3037 RMK
                 SF5SC1AS2 SLP292 =
2018-01-17 15:36 METAR CYQM 171536Z 16005KT 3SM -SN FEW007 BKN038 OVC080 M05/M07 A3039 RMK
                 SF2SC3AS3 SLP297 =
2018-01-17 15:00 METAR CYQM 171500Z 14004KT 3SM -SN SCT040 OVC080 M05/M07 A3041 RMK SC4AS4 /S01/
                 SLP304 =
2018-01-17 14:46 METAR CYQM 171446Z 15004KT 1 3/4SM -SN OVC038 M06/M07 A3041 RMK SC8 SLP304 =
2018-01-17 14:34 METAR CYQM 171434Z 14003KT 120V180 1 1/4SM -SN OVC034 M06/M07 A3042 RMK SC8
                 SLP307 =
2018-01-17 14:20 METAR CYQM 171420Z 16004KT 2SM -SN BKN042 OVC055 M06/M08 A3042 RMK SC6SC2 SLP310
                 =
2018-01-17 14:00 METAR CYQM 171400Z 16004KT 4SM -SN OVC055 M06/M08 A3043 RMK SC8 SLP311 =
2018-01-17 13:46 METAR CYQM 171346Z 16004KT 2 1/2SM -SN OVC055 M07/M08 A3043 RMK SC8 SLP311 =
2018-01-17 13:25 METAR CYQM 171325Z 16003KT 4SM -SN OVC055 M07/M08 A3043 RMK SC8 SLP311 =
2018-01-17 13:00 METAR CYQM 171300Z 14004KT 1 3/4SM -SN OVC056 M07/M09 A3043 RMK SN5NS3 SLP311 =
2018-01-17 12:10 METAR CYQM 171210Z 17006KT 2 1/4SM -SN OVC058 M08/M10 A3044 RMK NS8 SLP314 =
2018-01-17 12:00 METAR CYQM 171200Z 18005KT 3SM -SN OVC060 M08/M10 A3044 RMK NS8 SLP314 =
2018-01-17 11:00 METAR CYQM 171100Z 20004KT 10SM -SN OVC067 M09/M11 A3043 RMK AS8 SLP311 =
2018-01-17 10:08 METAR CYQM 171008Z 19002KT 15SM -SN OVC063 M09/M11 A3042 RMK SC8 SLP307 =
2018-01-17 10:00 METAR CYQM 171000Z 21002KT 15SM OVC064 M09/M11 A3042 RMK SC8 SLP308 =
2018-01-17 09:00 METAR CYQM 170900Z 23004KT 15SM SCT090 BKN150 BKN220 M09/M11 A3042 RMK AS3AC2CI1
                 SLP309 =
2018-01-17 08:17 METAR CYQM 170817Z 26005KT 15SM -SN BKN080 M09/M11 A3042 RMK AS7 SLP310 =
2018-01-17 08:00 METAR CYQM 170800Z 21006KT 15SM BKN075 M09/M11 A3043 RMK AS7 SLP311 =
2018-01-17 07:00 METAR CYQM 170700Z 23005KT 15SM FEW140 BKN220 M09/M11 A3044 RMK AC2CS4 SLP314 =
2018-01-17 06:00 METAR CYQM 170600Z 22006KT 15SM FEW012 OVC100 M09/M11 A3042 RMK CF1AS7 SLP307 =
2018-01-17 05:00 METAR CYQM 170500Z 22005KT 15SM FEW008 OVC120 M09/M11 A3042 RMK SF2AS6 SLP310 =
2018-01-17 04:37 METAR CYQM 170437Z 22006KT 15SM BKN008 OVC130 M09/M11 A3043 RMK SF5AS3 SLP312 =
2018-01-17 04:21 METAR CYQM 170421Z 23008KT 15SM FEW008 OVC130 M09/M11 A3044 RMK SF2AS6 SLP315 =
2018-01-17 04:00 METAR CYQM 170400Z 21008KT 10SM -SN BKN007 BKN020 M09/M10 A3044 RMK SF7SC1 SC TR
                 SLP316 =
2018-01-17 03:00 METAR CYQM 170300Z 25008KT 10SM -SN OVC008 M08/M10 A3044 RMK SF8 SLP315 =
2018-01-17 02:00 METAR CYQM 170200Z 24008KT 15SM -SN FEW004 BKN010 M08/M10 A3045 RMK SF1SF6
                 SLP317 =
2018-01-17 01:43 METAR CYQM 170143Z 25006KT 8SM -SN FEW004 OVC010 M08/M09 A3045 RMK SF2SF6 SLP317
                 =
2018-01-17 01:00 METAR CYQM 170100Z VRB02KT 8SM -SN BKN005 OVC012 M08/M09 A3045 RMK SF7SC1 SLP318
                 =
2018-01-17 00:52 METAR CYQM 170052Z 00000KT 8SM -SN BKN004 OVC011 M08/M09 A3045 RMK SF6SC2 SLP317
                 =

Support USWX by starting your Amazon purchase here.